Aérodrome :
LOGIN :

S'inscrire | Disclaimer

   EN    FR    IT 

 










Légende :    VFR   VFR Marginal   IFR   IFR Intensif   IFR Très Intensif
Visi : 
Plafond : 
>= 8 km
>= 3000ft
5 à 8 km
1000 à 3000 ft
1500m à 5 km
500 à 1000 ft
800 à 1500m
200 à 500 ft
< 800m
< 200 ft
Symboles :   Orages  Brouillard  Fortes neiges  Fortes précipitations  Vent > 20 kt
SIGMETs :   Divers  Orages  Givrage  Turbulence  Onde Orograph.  Cendres Volcan.







- Altitude de l'aérodrome : 146 ft
- Code IATA : RKE


EKRK - Roskilde Tune

DERNIER METAR :
  • 211720Z AUTO 25014G24KT 9999NDV -RA FEW170/// 13/07 Q1000

METARs EXPIRÉS :
  • 211650Z AUTO 25016KT 9999NDV FEW050/// SCT170/// 13/07 Q1000
  • 211620Z AUTO 24013KT 9999NDV -SHRA FEW038/// SCT180/// 14/08 Q1000
  • 211550Z AUTO 25014KT 220V280 9999NDV SCT130/// BKN150/// 14/08 Q0999
  • 211520Z AUTO 25015KT 9999NDV FEW085/// BKN110/// BKN130/// 14/08 Q0999
  • 211450Z AUTO 25015KT 220V280 9999NDV FEW065/// BKN100/// 14/09 Q0999

TAF TAF EKRK
Valide du 21 à 18h jusqu'au 22 à 03h UTC


211701Z 2118/2203 24015KT 9999 SCT030
TEMPO 2118/2203 25020G32KT 4000 RA BKN010 BKN030CB
Pas de NOTAMs connus pour ce terrain.
1 SIGMET publié pour la FIR Kobenhavn (EKDK) :
 
Turbulence forte
EKDK SIGMET 2 VALID 211530/211730 EKMI
EKDK KOBENHAVN FIR SEV TURB FCST AT 1530Z WI N5709 E00833 - N5714 E00926 - N5736 E00958 - N5709 E00948 - N5629 E00759 - N5709 E00833 SFC/2000FT NC FCST AT 1730Z WI N5744 E01040 - N5717 E01027 - N5625 E00812 - N5712 E00852 - N5719 E00936 - N5744 E01040=



MET'MAP, la Météo Aéronautique d'un coup d'oeil ! - Copyright ORBIFLY Décembre 2007 - Disclaimer

ORBIFLY MET'MAP TEAM :

Programmation & Développement : Alexandra Zaïnal
Conception & Développement : Baudouin d'Aumeries
Co-Programmation & Développement : Marc-Olivier Méhu
Soutien technique & logistique : Manuel Goepfert

Contact : metmap@orbifly.com




SOURCES & CREDITS :

   NOAA